Time;durP1;ratioP1;P1;durP2;ratioP2;P2;SDS_P1;SDS_P2;PMS_P1;PMS_P2;Temp;Humidity;BMP_temperature;BMP_pressure;BME280_temperature;BME280_humidity;BME280_pressure;Samples;Min_cycle;Max_cycle;Signal;HPM_P1;HPM_P2
2023/04/18 00:00:25;;;;;;;4.80;4.40;;;18.40;48.30;;;;;;5035399;28;20195;-77
2023/04/18 00:02:53;;;;;;;4.93;4.53;;;18.40;48.20;;;;;;5036722;28;20220;-77
2023/04/18 00:05:20;;;;;;;4.85;4.45;;;18.40;48.20;;;;;;5036089;28;20196;-77
2023/04/18 00:07:47;;;;;;;5.25;4.75;;;18.30;48.10;;;;;;5036247;28;20304;-77
2023/04/18 00:10:16;;;;;;;5.20;4.70;;;18.30;48.10;;;;;;5036167;28;20208;-77
2023/04/18 00:12:43;;;;;;;5.53;5.00;;;18.30;48.20;;;;;;5036360;28;20277;-77
2023/04/18 00:15:12;;;;;;;5.40;4.90;;;18.30;48.20;;;;;;5036309;28;20309;-77
2023/04/18 00:17:39;;;;;;;5.32;4.93;;;18.30;48.20;;;;;;5036095;28;20196;-77
2023/04/18 00:20:09;;;;;;;5.55;5.05;;;18.30;48.30;;;;;;5037069;28;20200;-77
2023/04/18 00:22:41;;;;;;;5.88;5.13;;;18.30;48.10;;;;;;5036184;28;20244;-76
2023/04/18 00:25:08;;;;;;;5.40;4.90;;;18.30;48.00;;;;;;5036009;28;20613;-76
2023/04/18 00:27:37;;;;;;;5.68;5.07;;;18.30;47.90;;;;;;5036059;28;20219;-76
2023/04/18 00:30:04;;;;;;;5.05;4.65;;;18.30;47.90;;;;;;5036188;28;20204;-76
2023/04/18 00:32:31;;;;;;;5.50;5.00;;;18.30;47.80;;;;;;5036173;28;20216;-76
2023/04/18 00:34:59;;;;;;;5.60;5.10;;;18.30;47.80;;;;;;5019885;28;20242;-77
2023/04/18 00:37:26;;;;;;;5.30;4.80;;;18.30;47.80;;;;;;5036014;28;20200;-77
2023/04/18 00:39:53;;;;;;;6.10;5.50;;;18.30;47.90;;;;;;5036024;28;20522;-77
2023/04/18 00:42:20;;;;;;;5.75;5.25;;;18.20;47.80;;;;;;5036534;28;20231;-77
2023/04/18 00:44:49;;;;;;;5.50;5.00;;;18.20;47.90;;;;;;5036229;28;20258;-77
2023/04/18 00:47:16;;;;;;;4.82;4.43;;;18.20;47.70;;;;;;5036147;28;20211;-77
2023/04/18 00:49:43;;;;;;;5.60;5.10;;;18.30;47.70;;;;;;5037494;28;20204;-77
2023/04/18 00:52:11;;;;;;;5.18;4.78;;;18.20;47.70;;;;;;5036060;28;20216;-77
2023/04/18 00:54:38;;;;;;;5.38;4.88;;;18.20;47.80;;;;;;5019448;28;20558;-77
2023/04/18 00:57:05;;;;;;;5.30;4.85;;;18.20;47.70;;;;;;5036308;28;20204;-77
2023/04/18 00:59:33;;;;;;;5.15;4.63;;;18.20;47.90;;;;;;5035495;28;20200;-77
2023/04/18 01:02:02;;;;;;;5.90;5.30;;;18.10;47.80;;;;;;5035394;28;20196;-77
2023/04/18 01:04:30;;;;;;;5.05;4.65;;;18.20;47.90;;;;;;5035415;28;20609;-77
2023/04/18 01:06:57;;;;;;;5.30;4.90;;;18.20;48.00;;;;;;5035507;28;20200;-77
2023/04/18 01:09:24;;;;;;;5.15;4.75;;;18.20;48.00;;;;;;5035380;28;20216;-77
2023/04/18 01:11:52;;;;;;;5.50;5.00;;;18.20;47.90;;;;;;5034004;28;20200;-77
2023/04/18 01:14:19;;;;;;;5.20;4.72;;;18.20;47.80;;;;;;5035244;28;20207;-77
2023/04/18 01:16:47;;;;;;;5.72;5.20;;;18.10;47.70;;;;;;5035193;28;20202;-77
2023/04/18 01:19:16;;;;;;;5.00;4.50;;;18.10;47.70;;;;;;5035486;28;20196;-77
2023/04/18 01:21:43;;;;;;;5.63;5.13;;;18.10;47.70;;;;;;5034904;28;20315;-77
2023/04/18 01:24:15;;;;;;;5.13;4.72;;;18.10;47.80;;;;;;5035074;28;20216;-77
2023/04/18 01:26:43;;;;;;;6.18;5.03;;;18.10;47.80;;;;;;5035008;28;20204;-77
2023/04/18 01:29:10;;;;;;;5.25;4.60;;;18.10;47.80;;;;;;5034780;28;20764;-77
2023/04/18 01:31:38;;;;;;;5.57;5.05;;;18.10;47.80;;;;;;5035963;28;20246;-77
2023/04/18 01:34:05;;;;;;;5.38;4.97;;;18.10;47.70;;;;;;5034418;28;20238;-77
2023/04/18 01:36:32;;;;;;;5.30;4.88;;;18.10;47.70;;;;;;5036024;28;20192;-77
2023/04/18 01:38:59;;;;;;;4.97;4.57;;;18.10;47.90;;;;;;5034440;28;20203;-77
2023/04/18 01:41:31;;;;;;;5.25;4.75;;;18.10;47.70;;;;;;5034865;28;20206;-77
2023/04/18 01:43:58;;;;;;;4.97;4.57;;;18.10;47.80;;;;;;5034889;28;20250;-77
2023/04/18 01:46:26;;;;;;;5.50;5.00;;;18.10;47.70;;;;;;5034676;28;20262;-77
2023/04/18 01:48:53;;;;;;;5.25;4.75;;;18.00;47.60;;;;;;5034294;28;20227;-77
2023/04/18 01:51:21;;;;;;;5.07;4.68;;;18.00;47.70;;;;;;5034532;28;20730;-77
2023/04/18 01:53:48;;;;;;;5.30;4.80;;;18.00;47.70;;;;;;5034586;28;20247;-77
2023/04/18 01:56:15;;;;;;;4.93;4.50;;;18.00;47.80;;;;;;5034644;28;20686;-77
2023/04/18 01:58:43;;;;;;;5.55;5.03;;;18.00;47.80;;;;;;5034966;28;20223;-77
2023/04/18 02:01:12;;;;;;;5.20;4.80;;;18.00;47.80;;;;;;5035486;28;20692;-77
2023/04/18 02:03:39;;;;;;;5.32;4.90;;;18.10;47.90;;;;;;5021450;28;20299;-77
2023/04/18 02:06:07;;;;;;;5.28;4.78;;;18.00;47.90;;;;;;5035160;28;20196;-77
2023/04/18 02:08:34;;;;;;;5.00;4.60;;;18.00;47.90;;;;;;5034708;28;20216;-77
2023/04/18 02:11:04;;;;;;;5.03;4.53;;;18.00;48.00;;;;;;5035244;28;20572;-77
2023/04/18 02:13:32;;;;;;;5.03;4.57;;;18.00;48.10;;;;;;5035515;28;20242;-77
2023/04/18 02:16:00;;;;;;;5.18;4.78;;;18.00;48.10;;;;;;5034136;28;20192;-77
2023/04/18 02:18:27;;;;;;;5.50;5.00;;;18.00;48.00;;;;;;5034076;28;20207;-77
2023/04/18 02:21:00;;;;;;;5.78;5.22;;;17.90;47.90;;;;;;5034355;28;20697;-77
2023/04/18 02:23:48;;;;;;;4.95;4.55;;;18.00;48.00;;;;;;5035243;28;20601;-77
2023/04/18 02:26:15;;;;;;;5.47;4.97;;;17.90;48.00;;;;;;5034361;28;20222;-77
2023/04/18 02:28:42;;;;;;;5.47;4.97;;;17.90;48.10;;;;;;5033658;28;20289;-77
2023/04/18 02:31:13;;;;;;;5.10;4.70;;;17.90;48.10;;;;;;5033713;28;20254;-77
2023/04/18 02:33:41;;;;;;;5.30;4.90;;;17.90;48.20;;;;;;5034004;28;20719;-77
2023/04/18 02:36:08;;;;;;;5.35;4.85;;;17.90;48.10;;;;;;5033541;28;20564;-77
2023/04/18 02:38:35;;;;;;;5.40;4.90;;;17.90;48.00;;;;;;5033600;28;20278;-77
2023/04/18 02:41:02;;;;;;;5.40;4.90;;;17.90;48.00;;;;;;5033355;28;20654;-77
2023/04/18 02:43:29;;;;;;;5.32;4.82;;;17.90;48.00;;;;;;5033233;28;20216;-77
2023/04/18 02:45:57;;;;;;;6.15;5.40;;;17.90;47.90;;;;;;5033591;28;20206;-77
2023/04/18 02:48:26;;;;;;;5.57;5.07;;;17.90;47.90;;;;;;5033310;28;20228;-77
2023/04/18 02:50:53;;;;;;;5.40;4.90;;;17.90;47.80;;;;;;5033709;28;20227;-77
2023/04/18 02:53:22;;;;;;;6.20;5.25;;;17.90;47.80;;;;;;5033343;28;20277;-77
2023/04/18 02:55:53;;;;;;;5.72;5.22;;;17.90;47.90;;;;;;5034349;28;20192;-77
2023/04/18 02:58:25;;;;;;;6.57;4.90;;;17.90;47.80;;;;;;5033840;28;20220;-77
2023/04/18 03:00:56;;;;;;;5.82;5.32;;;17.90;47.70;;;;;;5035710;28;20631;-77
2023/04/18 03:03:52;;;;;;;5.40;4.93;;;17.90;47.70;;;;;;5034921;28;20223;-77
2023/04/18 03:06:48;;;;;;;5.82;5.32;;;17.90;47.60;;;;;;5021238;28;20341;-76
2023/04/18 03:09:17;;;;;;;5.70;5.20;;;17.90;47.60;;;;;;5033175;28;20283;-76
2023/04/18 03:11:49;;;;;;;6.10;5.50;;;17.90;47.50;;;;;;5033519;28;20196;-76
2023/04/18 03:14:20;;;;;;;5.13;4.68;;;17.90;47.50;;;;;;5034202;28;20219;-76
2023/04/18 03:16:51;;;;;;;5.90;5.40;;;17.90;47.40;;;;;;5033461;28;20204;-76
2023/04/18 03:19:23;;;;;;;5.93;5.43;;;17.90;47.60;;;;;;5034567;28;20192;-76
2023/04/18 03:21:52;;;;;;;5.18;4.68;;;17.90;47.70;;;;;;5072413;22;20285;-78
2023/04/18 03:24:19;;;;;;;5.88;5.38;;;17.90;47.60;;;;;;5035496;28;20192;-78
2023/04/18 03:26:50;;;;;;;5.60;5.10;;;17.90;47.60;;;;;;5033968;28;20199;-78
2023/04/18 03:29:20;;;;;;;4.80;4.40;;;17.90;47.60;;;;;;5033744;28;20240;-78
2023/04/18 03:31:48;;;;;;;5.38;4.85;;;17.90;47.90;;;;;;5033156;28;20200;-78
2023/04/18 03:34:15;;;;;;;5.70;5.20;;;17.90;47.90;;;;;;5032497;28;20200;-78
2023/04/18 03:36:45;;;;;;;5.38;4.93;;;18.00;48.10;;;;;;5016823;28;20249;-78
2023/04/18 03:39:12;;;;;;;5.30;4.80;;;18.00;47.90;;;;;;5033089;28;20291;-78
2023/04/18 03:41:39;;;;;;;5.63;5.13;;;18.00;47.80;;;;;;5032979;28;20200;-78
2023/04/18 03:44:07;;;;;;;5.57;5.07;;;18.00;47.70;;;;;;5033003;28;20219;-78
2023/04/18 03:46:37;;;;;;;5.43;4.93;;;18.00;47.70;;;;;;5033127;28;20658;-78
2023/04/18 03:49:05;;;;;;;5.00;4.60;;;18.10;47.70;;;;;;5033153;28;20299;-78
2023/04/18 03:51:33;;;;;;;5.65;5.15;;;18.00;47.50;;;;;;5033698;28;20204;-78
2023/04/18 03:54:01;;;;;;;5.07;4.68;;;18.10;47.50;;;;;;5033306;28;20228;-78
2023/04/18 03:56:28;;;;;;;5.32;4.93;;;18.10;47.40;;;;;;5033447;28;20694;-78
2023/04/18 03:58:57;;;;;;;5.22;4.82;;;18.20;47.40;;;;;;5032669;28;20192;-78
2023/04/18 04:01:24;;;;;;;5.50;5.00;;;18.10;47.30;;;;;;5032654;28;20204;-78
2023/04/18 04:03:53;;;;;;;5.53;5.00;;;18.10;47.30;;;;;;5017090;28;20220;-78
2023/04/18 04:06:20;;;;;;;5.28;4.88;;;18.10;47.30;;;;;;5033032;28;20199;-78
2023/04/18 04:08:47;;;;;;;5.25;4.85;;;18.10;47.40;;;;;;5033694;28;20216;-78
2023/04/18 04:11:20;;;;;;;5.07;4.65;;;18.10;47.40;;;;;;5032133;28;20565;-78
2023/04/18 04:13:48;;;;;;;5.10;4.70;;;18.10;47.40;;;;;;5033134;28;20251;-78
2023/04/18 04:16:18;;;;;;;4.88;4.47;;;18.10;47.40;;;;;;5001927;28;20287;-79
2023/04/18 04:18:47;;;;;;;5.07;4.60;;;18.10;47.90;;;;;;5033418;28;20255;-78
2023/04/18 04:21:14;;;;;;;5.50;4.95;;;18.10;47.30;;;;;;5033166;28;20200;-78
2023/04/18 04:23:52;;;;;;;5.20;4.72;;;18.10;47.20;;;;;;5033438;28;20216;-78
2023/04/18 04:26:39;;;;;;;5.32;4.82;;;18.10;47.30;;;;;;5019949;28;20199;-78
2023/04/18 04:29:12;;;;;;;5.43;4.95;;;18.10;47.30;;;;;;5033272;28;20224;-78
2023/04/18 04:31:42;;;;;;;5.00;4.60;;;18.10;47.20;;;;;;5033833;28;20554;-78
2023/04/18 04:34:09;;;;;;;5.45;4.95;;;18.10;47.20;;;;;;5033066;28;20218;-78
2023/04/18 04:36:36;;;;;;;5.50;5.00;;;18.20;47.30;;;;;;5033686;28;20196;-78
2023/04/18 04:39:07;;;;;;;5.30;4.80;;;18.10;47.20;;;;;;5033559;28;20193;-78
2023/04/18 04:42:05;;;;;;;5.00;4.60;;;18.10;47.30;;;;;;5014927;28;20610;-78
2023/04/18 04:44:41;;;;;;;5.07;4.65;;;18.10;47.30;;;;;;5033164;28;20196;-78
2023/04/18 04:47:09;;;;;;;6.68;5.18;;;18.10;47.30;;;;;;5035555;28;20603;-78
2023/04/18 04:49:38;;;;;;;5.85;5.35;;;18.10;47.20;;;;;;5035913;28;20223;-78
2023/04/18 04:52:05;;;;;;;4.97;4.57;;;18.10;47.10;;;;;;5036132;28;20288;-78
2023/04/18 04:54:32;;;;;;;5.78;5.28;;;18.10;47.10;;;;;;5036279;28;20206;-78
2023/04/18 04:57:00;;;;;;;5.57;5.07;;;18.10;47.20;;;;;;5035845;28;20202;-77
2023/04/18 04:59:28;;;;;;;5.43;5.03;;;18.10;47.70;;;;;;5035845;28;20198;-77
2023/04/18 05:01:56;;;;;;;5.45;4.95;;;18.10;47.10;;;;;;5035333;28;20231;-77
2023/04/18 05:04:23;;;;;;;5.53;5.03;;;18.10;47.20;;;;;;5035906;28;20196;-75
2023/04/18 05:06:50;;;;;;;5.63;5.13;;;18.10;47.20;;;;;;5037052;28;20200;-80
2023/04/18 05:09:17;;;;;;;6.00;5.40;;;18.10;47.20;;;;;;5036967;28;20306;-78
2023/04/18 05:11:44;;;;;;;5.63;4.60;;;18.10;47.20;;;;;;5037984;28;20200;-78
2023/04/18 05:14:11;;;;;;;5.82;5.32;;;18.10;47.40;;;;;;5036365;28;20220;-78
2023/04/18 05:16:40;;;;;;;5.78;5.22;;;18.20;47.50;;;;;;5035856;28;20661;-78
2023/04/18 05:19:07;;;;;;;6.13;5.53;;;18.20;47.20;;;;;;5036026;28;20287;-78
2023/04/18 05:21:34;;;;;;;6.35;5.78;;;18.20;47.40;;;;;;5035341;28;20659;-78
2023/04/18 05:24:01;;;;;;;5.80;5.30;;;18.20;47.60;;;;;;5018665;28;20224;-78
2023/04/18 05:26:29;;;;;;;6.00;5.50;;;18.20;47.60;;;;;;5018925;28;20199;-78
2023/04/18 05:28:56;;;;;;;6.38;5.78;;;18.20;47.50;;;;;;5018836;28;20196;-78
2023/04/18 05:31:23;;;;;;;5.70;5.10;;;18.20;47.50;;;;;;5019543;28;20200;-78
2023/04/18 05:33:51;;;;;;;7.18;5.97;;;18.30;47.60;;;;;;5018831;28;20216;-78
2023/04/18 05:36:18;;;;;;;6.40;5.80;;;18.30;47.60;;;;;;5018485;28;20203;-78
2023/04/18 05:38:45;;;;;;;6.70;5.90;;;18.30;47.50;;;;;;5018588;28;20215;-78
2023/04/18 05:41:12;;;;;;;6.85;5.88;;;18.30;47.70;;;;;;5018236;28;20214;-78
2023/04/18 05:43:39;;;;;;;6.57;5.97;;;18.30;47.60;;;;;;5018241;28;20285;-78
2023/04/18 05:46:07;;;;;;;6.45;5.82;;;18.30;47.40;;;;;;5018313;28;20570;-78
2023/04/18 05:48:34;;;;;;;6.28;5.68;;;18.30;47.40;;;;;;5018068;28;20208;-78
2023/04/18 05:51:04;;;;;;;5.65;5.13;;;18.30;47.50;;;;;;5018028;28;20555;-78
2023/04/18 05:53:31;;;;;;;6.18;5.63;;;18.30;47.60;;;;;;5018418;28;20307;-78
2023/04/18 05:55:58;;;;;;;6.03;5.43;;;18.30;47.40;;;;;;5018817;28;20206;-78
2023/04/18 05:58:27;;;;;;;6.05;5.45;;;18.30;47.60;;;;;;5017874;28;20701;-78
2023/04/18 06:00:54;;;;;;;7.03;5.50;;;18.30;47.50;;;;;;5018450;28;20196;-78
2023/04/18 06:03:22;;;;;;;5.80;5.13;;;18.40;47.70;;;;;;5018292;28;20266;-78
2023/04/18 06:05:49;;;;;;;5.72;5.07;;;18.40;47.70;;;;;;5018112;28;20192;-78
2023/04/18 06:08:17;;;;;;;6.45;5.85;;;18.40;47.80;;;;;;5018324;28;20200;-78
2023/04/18 06:10:44;;;;;;;6.10;5.50;;;18.40;47.70;;;;;;5018292;28;20212;-78
2023/04/18 06:13:11;;;;;;;5.90;5.00;;;18.40;47.60;;;;;;5018118;28;20269;-77
2023/04/18 06:15:38;;;;;;;5.80;5.28;;;18.40;47.80;;;;;;5017703;28;20215;-78
2023/04/18 06:18:05;;;;;;;5.85;5.32;;;18.40;48.50;;;;;;5017852;28;20291;-78
2023/04/18 06:20:32;;;;;;;6.35;5.45;;;18.40;47.70;;;;;;5017706;28;20188;-79
2023/04/18 06:22:59;;;;;;;5.88;5.38;;;18.40;47.60;;;;;;5028131;28;20254;-80
2023/04/18 06:25:28;;;;;;;6.00;5.40;;;18.40;47.60;;;;;;5034096;28;20628;-78
2023/04/18 06:27:55;;;;;;;5.47;4.97;;;18.50;47.70;;;;;;5033854;28;20196;-78
2023/04/18 06:30:22;;;;;;;5.63;5.13;;;18.60;47.50;;;;;;5033807;28;20634;-78
2023/04/18 06:32:49;;;;;;;5.68;5.18;;;18.60;47.10;;;;;;5033756;28;20320;-78
2023/04/18 06:35:16;;;;;;;5.40;4.90;;;18.70;47.00;;;;;;5034219;28;20210;-78
2023/04/18 06:37:44;;;;;;;5.53;5.05;;;18.80;46.70;;;;;;5034012;28;20203;-78
2023/04/18 06:40:11;;;;;;;5.75;5.25;;;18.80;46.40;;;;;;5033818;28;20208;-78
2023/04/18 06:42:41;;;;;;;5.32;4.82;;;18.90;46.50;;;;;;5017054;28;20216;-78
2023/04/18 06:45:10;;;;;;;5.78;4.63;;;18.90;46.40;;;;;;5033440;28;20253;-78
2023/04/18 06:47:37;;;;;;;5.43;5.03;;;19.00;46.30;;;;;;5033688;28;20254;-78
2023/04/18 06:50:05;;;;;;;6.25;5.70;;;18.90;46.00;;;;;;5033442;28;20274;-78
2023/04/18 06:52:32;;;;;;;5.72;5.22;;;19.00;46.10;;;;;;5034669;28;20216;-78
2023/04/18 06:55:00;;;;;;;5.43;4.93;;;19.00;46.10;;;;;;5033497;28;20195;-78
2023/04/18 06:57:27;;;;;;;5.32;4.88;;;19.00;46.00;;;;;;5033171;28;20200;-78
2023/04/18 06:59:56;;;;;;;5.60;5.10;;;19.00;45.90;;;;;;5033632;28;20196;-78
2023/04/18 07:02:23;;;;;;;5.90;5.40;;;19.00;46.00;;;;;;5033477;28;20216;-78
2023/04/18 07:04:50;;;;;;;5.47;4.97;;;19.00;45.80;;;;;;5033056;28;20203;-78
2023/04/18 07:07:17;;;;;;;5.57;5.05;;;19.00;45.90;;;;;;5033304;28;20207;-78
2023/04/18 07:09:44;;;;;;;5.55;5.05;;;19.00;45.90;;;;;;5032366;28;20222;-78
2023/04/18 07:12:12;;;;;;;5.32;4.90;;;19.00;45.60;;;;;;5016839;28;20239;-78
2023/04/18 07:14:39;;;;;;;5.43;4.93;;;19.00;45.60;;;;;;5033711;28;20192;-78
2023/04/18 07:17:07;;;;;;;5.40;5.00;;;19.00;45.60;;;;;;5034121;28;20195;-78
2023/04/18 07:19:35;;;;;;;6.13;5.53;;;19.00;45.80;;;;;;5033375;28;20200;-78
2023/04/18 07:22:02;;;;;;;5.72;5.22;;;19.10;45.50;;;;;;5033740;28;20262;-78
2023/04/18 07:24:30;;;;;;;5.70;5.20;;;19.10;45.60;;;;;;5033212;28;20192;-79
2023/04/18 07:26:57;;;;;;;6.00;5.40;;;19.10;45.70;;;;;;5017937;28;20192;-79
2023/04/18 07:29:24;;;;;;;6.25;4.78;;;19.10;45.50;;;;;;5033082;28;20639;-79
2023/04/18 07:31:51;;;;;;;5.30;4.80;;;19.10;45.60;;;;;;5032898;28;20210;-78
2023/04/18 07:34:21;;;;;;;5.05;4.63;;;19.10;45.50;;;;;;5032808;28;20196;-78
2023/04/18 07:36:48;;;;;;;5.70;5.20;;;19.10;45.50;;;;;;5033234;28;20192;-78
2023/04/18 07:39:15;;;;;;;5.70;5.20;;;19.10;45.30;;;;;;5033106;28;20196;-78
2023/04/18 07:41:42;;;;;;;5.22;4.72;;;19.10;45.20;;;;;;5034297;28;20286;-78
2023/04/18 07:44:09;;;;;;;5.95;5.45;;;19.10;45.40;;;;;;5033052;28;20216;-78
2023/04/18 07:46:36;;;;;;;5.50;5.00;;;19.10;45.20;;;;;;5016365;28;20200;-78
2023/04/18 07:49:03;;;;;;;5.60;5.10;;;19.10;45.30;;;;;;5016313;28;20219;-78
2023/04/18 07:51:33;;;;;;;5.63;5.13;;;19.10;45.20;;;;;;5032749;28;20679;-78
2023/04/18 07:54:00;;;;;;;5.93;5.32;;;19.20;45.50;;;;;;5034045;28;20629;-78
2023/04/18 07:56:28;;;;;;;6.15;5.55;;;19.20;45.50;;;;;;5033797;28;20552;-78
2023/04/18 07:58:55;;;;;;;5.30;4.80;;;19.20;45.30;;;;;;5032900;28;20198;-78
2023/04/18 08:01:23;;;;;;;5.72;5.07;;;19.20;45.30;;;;;;5032659;28;20204;-78
2023/04/18 08:03:51;;;;;;;5.53;4.95;;;19.20;45.10;;;;;;5032544;28;20224;-78
2023/04/18 08:06:20;;;;;;;5.38;4.85;;;19.20;45.10;;;;;;5032364;28;20200;-78
2023/04/18 08:08:48;;;;;;;5.60;5.10;;;19.30;45.20;;;;;;5032502;28;20203;-78
2023/04/18 08:11:16;;;;;;;6.25;5.65;;;19.20;45.10;;;;;;5016176;28;20238;-78
2023/04/18 08:13:43;;;;;;;6.80;5.70;;;19.20;45.10;;;;;;5032944;28;20227;-78
2023/04/18 08:16:10;;;;;;;6.00;5.40;;;19.20;45.10;;;;;;5032876;28;20195;-78
2023/04/18 08:18:37;;;;;;;6.57;6.07;;;19.20;45.30;;;;;;5032775;28;20206;-78
2023/04/18 08:21:05;;;;;;;5.53;5.03;;;19.20;45.40;;;;;;5035230;28;20204;-78
2023/04/18 08:23:32;;;;;;;6.40;5.80;;;19.30;45.30;;;;;;5036412;28;20244;-78
2023/04/18 08:26:01;;;;;;;5.68;5.18;;;19.30;45.20;;;;;;5036880;28;20567;-78
2023/04/18 08:28:28;;;;;;;5.88;5.32;;;19.30;45.20;;;;;;5037803;28;20612;-78
2023/04/18 08:30:55;;;;;;;6.60;5.32;;;19.40;45.20;;;;;;5038579;28;20235;-78
2023/04/18 08:33:22;;;;;;;5.10;4.70;;;19.50;45.20;;;;;;5036954;28;20224;-78
2023/04/18 08:35:51;;;;;;;5.82;5.30;;;19.50;45.30;;;;;;5036804;28;20225;-78
2023/04/18 08:38:18;;;;;;;5.60;5.10;;;19.50;44.80;;;;;;5036327;28;20200;-78
2023/04/18 08:40:45;;;;;;;6.35;5.75;;;19.60;44.70;;;;;;5036321;28;20188;-78
2023/04/18 08:43:14;;;;;;;5.88;5.38;;;19.60;44.70;;;;;;5037319;28;20208;-78
2023/04/18 08:45:41;;;;;;;6.05;5.45;;;19.60;44.80;;;;;;5036606;28;20215;-78
2023/04/18 08:48:11;;;;;;;5.80;5.30;;;19.60;44.70;;;;;;5035813;28;20204;-78
2023/04/18 08:50:39;;;;;;;6.65;6.03;;;19.60;44.80;;;;;;5035812;28;20243;-78
2023/04/18 08:53:06;;;;;;;5.80;5.30;;;19.60;44.80;;;;;;5036028;28;20220;-78
2023/04/18 08:55:34;;;;;;;6.18;5.57;;;19.70;44.40;;;;;;5036017;28;20197;-78
2023/04/18 08:58:01;;;;;;;5.75;5.25;;;19.80;44.40;;;;;;5036915;28;20185;-78
2023/04/18 09:00:30;;;;;;;5.60;5.10;;;19.80;44.30;;;;;;5036818;28;20192;-78
2023/04/18 09:02:57;;;;;;;5.53;5.03;;;19.70;44.40;;;;;;5035620;28;20228;-78
2023/04/18 09:05:26;;;;;;;5.53;5.10;;;19.80;44.50;;;;;;5036488;28;20204;-78
2023/04/18 09:07:53;;;;;;;5.95;5.45;;;19.80;44.50;;;;;;5035598;28;20210;-78
2023/04/18 09:10:28;;;;;;;6.63;6.03;;;19.80;44.40;;;;;;5035494;28;20226;-78
2023/04/18 09:12:55;;;;;;;5.72;5.20;;;19.70;44.20;;;;;;5035362;28;20682;-78
2023/04/18 09:15:25;;;;;;;5.13;4.63;;;19.80;44.40;;;;;;5035950;28;20204;-78
2023/04/18 09:17:56;;;;;;;5.05;4.65;;;19.80;44.60;;;;;;5035430;28;20287;-78
2023/04/18 09:20:33;;;;;;;6.13;5.63;;;19.80;44.60;;;;;;5035367;28;20196;-78
2023/04/18 09:23:01;;;;;;;5.57;5.07;;;19.80;44.50;;;;;;5019558;28;20266;-78
2023/04/18 09:25:29;;;;;;;6.07;5.43;;;19.80;44.50;;;;;;5035154;28;20196;-78
2023/04/18 09:27:59;;;;;;;6.10;5.55;;;19.80;44.40;;;;;;5035156;28;20203;-78
2023/04/18 09:30:37;;;;;;;5.80;5.30;;;19.80;44.40;;;;;;5035710;28;20245;-78
2023/04/18 09:33:06;;;;;;;6.70;5.80;;;19.80;44.50;;;;;;5034870;28;20714;-78
2023/04/18 09:35:33;;;;;;;6.45;5.85;;;19.80;44.20;;;;;;5035073;28;20555;-78
2023/04/18 09:38:00;;;;;;;6.15;5.55;;;19.80;44.40;;;;;;5035052;28;20214;-78
2023/04/18 09:40:27;;;;;;;6.25;5.68;;;19.80;44.30;;;;;;5035113;28;20206;-78
2023/04/18 09:42:54;;;;;;;6.13;5.53;;;19.80;44.40;;;;;;5034781;28;20216;-78
2023/04/18 09:45:22;;;;;;;6.50;5.90;;;19.80;44.30;;;;;;5034921;28;20696;-78
2023/04/18 09:47:49;;;;;;;6.05;5.55;;;19.80;44.30;;;;;;5035442;28;20604;-78
2023/04/18 09:50:19;;;;;;;5.65;5.15;;;19.90;44.30;;;;;;5034583;28;20196;-78
2023/04/18 09:52:47;;;;;;;5.75;5.25;;;19.90;44.40;;;;;;5035153;28;20219;-78
2023/04/18 09:55:16;;;;;;;5.80;5.30;;;19.90;44.30;;;;;;5035736;28;20215;-78
2023/04/18 09:57:45;;;;;;;6.40;5.80;;;19.90;44.50;;;;;;5034329;28;20196;-78
2023/04/18 10:00:16;;;;;;;5.68;5.18;;;19.90;44.40;;;;;;5034589;28;20247;-78
2023/04/18 10:02:49;;;;;;;5.82;5.22;;;19.90;44.20;;;;;;5034080;28;20274;-78
2023/04/18 10:05:19;;;;;;;5.80;5.30;;;20.00;44.10;;;;;;5019033;28;20287;-78
2023/04/18 10:07:47;;;;;;;5.88;5.28;;;20.00;44.10;;;;;;5034481;28;20196;-78
2023/04/18 10:10:14;;;;;;;6.80;6.18;;;20.00;44.00;;;;;;5034620;28;20200;-78
2023/04/18 10:12:41;;;;;;;5.80;5.30;;;20.00;44.10;;;;;;5034554;28;20223;-78
2023/04/18 10:15:10;;;;;;;6.00;5.50;;;20.00;44.00;;;;;;5034636;28;20230;-78
2023/04/18 10:17:44;;;;;;;5.95;5.35;;;19.90;44.30;;;;;;5018150;28;20227;-78
2023/04/18 10:20:21;;;;;;;6.10;5.50;;;19.90;44.20;;;;;;5034602;28;20223;-78
2023/04/18 10:22:49;;;;;;;5.50;5.00;;;20.00;44.20;;;;;;5034418;28;20394;-78
2023/04/18 10:25:47;;;;;;;5.53;5.03;;;20.00;44.20;;;;;;5034200;28;20200;-78
2023/04/18 10:28:14;;;;;;;5.68;5.18;;;20.00;44.00;;;;;;5034254;28;20192;-78
2023/04/18 10:30:55;;;;;;;5.72;5.22;;;20.10;44.00;;;;;;5035620;28;20562;-78
2023/04/18 10:33:34;;;;;;;5.90;5.40;;;20.10;43.90;;;;;;5034529;28;20223;-78
2023/04/18 10:36:05;;;;;;;4.97;4.50;;;20.10;43.80;;;;;;5034878;28;20627;-79
2023/04/18 10:38:32;;;;;;;5.75;5.25;;;20.20;43.90;;;;;;5034364;28;20253;-79
2023/04/18 10:41:19;;;;;;;5.78;5.28;;;20.10;43.80;;;;;;5033979;28;20226;-79
2023/04/18 10:44:26;;;;;;;5.53;5.03;;;20.10;43.90;;;;;;5034215;28;20690;-79
2023/04/18 10:47:31;;;;;;;4.88;4.47;;;20.10;44.00;;;;;;5033975;28;20299;-79
2023/04/18 10:50:00;;;;;;;5.85;5.35;;;20.10;43.90;;;;;;5034582;28;20199;-79
2023/04/18 10:52:29;;;;;;;5.72;5.22;;;20.10;43.70;;;;;;5034777;28;20231;-79
2023/04/18 10:55:03;;;;;;;5.65;5.15;;;20.10;43.90;;;;;;5035601;28;20235;-79
2023/04/18 10:57:38;;;;;;;5.50;5.00;;;20.10;43.90;;;;;;5035265;28;20676;-79
2023/04/18 11:00:08;;;;;;;5.43;4.93;;;20.10;43.80;;;;;;5035204;28;20195;-79
2023/04/18 11:02:35;;;;;;;5.32;4.82;;;20.10;43.80;;;;;;5034027;28;20307;-79
2023/04/18 11:05:05;;;;;;;5.18;4.78;;;20.20;44.00;;;;;;5033932;28;20250;-79
2023/04/18 11:07:34;;;;;;;5.25;4.75;;;20.20;44.00;;;;;;5034172;28;20291;-79
2023/04/18 11:10:01;;;;;;;5.63;5.13;;;20.20;44.00;;;;;;5034880;28;20200;-79
2023/04/18 11:12:32;;;;;;;5.03;4.55;;;20.20;43.80;;;;;;5033150;28;20303;-79
2023/04/18 11:15:01;;;;;;;4.90;4.50;;;20.20;43.90;;;;;;5033464;28;20632;-79
2023/04/18 11:17:31;;;;;;;5.20;4.75;;;20.20;43.70;;;;;;5033545;28;20204;-79
2023/04/18 11:20:05;;;;;;;4.47;4.18;;;20.20;43.70;;;;;;5033261;28;20200;-79
2023/04/18 11:22:33;;;;;;;5.18;4.68;;;20.20;43.70;;;;;;5034102;28;20273;-79
2023/04/18 11:25:00;;;;;;;5.32;4.63;;;20.20;43.70;;;;;;5033252;28;20211;-79
2023/04/18 11:27:29;;;;;;;4.93;4.43;;;20.20;43.70;;;;;;5033970;28;20196;-79
2023/04/18 11:29:57;;;;;;;4.93;4.47;;;20.20;43.80;;;;;;5033123;28;20623;-79
2023/04/18 11:32:24;;;;;;;4.60;4.20;;;20.20;43.80;;;;;;5034092;28;20226;-79
2023/04/18 11:34:53;;;;;;;4.68;4.28;;;20.30;44.50;;;;;;5033609;28;20231;-79
2023/04/18 11:37:20;;;;;;;4.75;4.35;;;20.20;43.70;;;;;;5033481;28;20635;-79
2023/04/18 11:39:48;;;;;;;4.97;4.47;;;20.20;43.70;;;;;;5033215;28;20196;-79
2023/04/18 11:42:15;;;;;;;5.15;4.70;;;20.20;43.70;;;;;;5033098;28;20310;-79
2023/04/18 11:44:45;;;;;;;4.30;4.00;;;20.30;43.80;;;;;;5032978;28;20220;-79
2023/04/18 11:47:23;;;;;;;4.65;4.25;;;20.20;43.90;;;;;;5032993;28;20203;-79
2023/04/18 11:49:56;;;;;;;4.82;4.43;;;20.20;43.90;;;;;;5033067;28;20206;-79
2023/04/18 11:52:23;;;;;;;4.55;4.15;;;20.10;43.90;;;;;;5032874;28;20223;-79
2023/04/18 11:54:51;;;;;;;4.82;4.43;;;20.20;43.90;;;;;;5033115;28;20683;-79
2023/04/18 11:57:20;;;;;;;5.03;4.53;;;20.20;44.00;;;;;;5036905;28;20299;-79
2023/04/18 11:59:54;;;;;;;4.25;3.85;;;20.20;44.00;;;;;;5038796;28;20271;-79
2023/04/18 12:02:21;;;;;;;4.63;4.22;;;20.20;44.10;;;;;;5037034;28;20589;-79
2023/04/18 12:04:53;;;;;;;4.13;3.78;;;20.20;44.10;;;;;;5036751;28;20676;-78
2023/04/18 12:07:33;;;;;;;4.32;3.92;;;20.20;44.00;;;;;;5036471;28;20206;-78
2023/04/18 12:10:02;;;;;;;4.90;4.50;;;20.20;44.20;;;;;;5021055;28;20258;-78
2023/04/18 12:12:29;;;;;;;4.20;3.90;;;20.20;44.10;;;;;;5036794;28;20694;-78
2023/04/18 12:15:06;;;;;;;4.72;4.32;;;20.20;44.00;;;;;;5036564;28;20197;-78
2023/04/18 12:17:33;;;;;;;4.57;4.18;;;20.20;43.80;;;;;;5036664;28;20200;-78
2023/04/18 12:20:01;;;;;;;5.00;4.55;;;20.20;43.90;;;;;;5037570;28;20192;-78
2023/04/18 12:22:43;;;;;;;4.70;4.30;;;20.20;44.00;;;;;;5038406;28;20220;-78
2023/04/18 12:25:21;;;;;;;4.82;4.43;;;20.20;43.80;;;;;;5019756;28;20200;-78
2023/04/18 12:27:50;;;;;;;4.50;4.20;;;20.30;43.90;;;;;;5020497;28;20279;-78
2023/04/18 12:30:20;;;;;;;4.18;3.88;;;20.30;43.90;;;;;;5019604;28;20192;-78
2023/04/18 12:32:47;;;;;;;4.75;4.35;;;20.30;44.00;;;;;;5018911;28;20227;-78
2023/04/18 12:35:15;;;;;;;4.75;4.35;;;20.30;44.00;;;;;;5020704;28;20200;-78
2023/04/18 12:37:42;;;;;;;4.40;4.00;;;20.30;43.80;;;;;;5021443;28;20666;-78
2023/04/18 12:40:12;;;;;;;4.05;3.75;;;20.40;43.90;;;;;;5019569;28;20611;-78
2023/04/18 12:42:41;;;;;;;4.40;4.03;;;20.40;43.80;;;;;;5037288;28;20208;-78
2023/04/18 12:45:09;;;;;;;4.15;3.80;;;20.50;43.80;;;;;;5019600;28;20282;-78
2023/04/18 12:47:38;;;;;;;4.75;4.35;;;20.50;43.70;;;;;;5003474;28;20200;-79
2023/04/18 12:50:06;;;;;;;4.18;3.88;;;20.60;43.70;;;;;;5019181;28;20208;-79
2023/04/18 12:52:34;;;;;;;4.50;4.10;;;20.50;43.50;;;;;;5019332;28;20232;-79
2023/04/18 12:55:01;;;;;;;4.50;4.18;;;20.60;43.50;;;;;;5020470;28;20291;-79
2023/04/18 12:57:28;;;;;;;4.60;4.20;;;20.60;43.50;;;;;;5019870;28;20655;-79